sensor_id;sensor_type;location;lat;lon;timestamp;P1;durP1;ratioP1;P2;durP2;ratioP2
34134;SDS011;20410;55.578;12.968;2022-07-23T00:00:35;8.13;;;2.90;;
34134;SDS011;20410;55.578;12.968;2022-07-23T00:03:00;8.93;;;3.17;;
34134;SDS011;20410;55.578;12.968;2022-07-23T00:05:26;7.70;;;3.10;;
34134;SDS011;20410;55.578;12.968;2022-07-23T00:07:52;8.93;;;3.07;;
34134;SDS011;20410;55.578;12.968;2022-07-23T00:10:17;9.23;;;3.05;;
34134;SDS011;20410;55.578;12.968;2022-07-23T00:12:43;9.83;;;2.70;;
34134;SDS011;20410;55.578;12.968;2022-07-23T00:15:08;10.47;;;3.00;;
34134;SDS011;20410;55.578;12.968;2022-07-23T00:17:35;9.00;;;3.33;;
34134;SDS011;20410;55.578;12.968;2022-07-23T00:20:01;12.10;;;3.07;;
34134;SDS011;20410;55.578;12.968;2022-07-23T00:22:27;7.90;;;2.77;;
34134;SDS011;20410;55.578;12.968;2022-07-23T00:24:54;10.40;;;3.33;;
34134;SDS011;20410;55.578;12.968;2022-07-23T00:27:20;10.70;;;3.10;;
34134;SDS011;20410;55.578;12.968;2022-07-23T00:29:46;9.33;;;3.07;;
34134;SDS011;20410;55.578;12.968;2022-07-23T00:32:11;7.90;;;2.87;;
34134;SDS011;20410;55.578;12.968;2022-07-23T00:34:37;9.10;;;3.00;;
34134;SDS011;20410;55.578;12.968;2022-07-23T00:37:08;11.93;;;3.50;;
34134;SDS011;20410;55.578;12.968;2022-07-23T00:39:34;10.03;;;3.17;;
34134;SDS011;20410;55.578;12.968;2022-07-23T00:42:00;9.47;;;3.10;;
34134;SDS011;20410;55.578;12.968;2022-07-23T00:44:26;9.43;;;3.00;;
34134;SDS011;20410;55.578;12.968;2022-07-23T00:46:54;8.93;;;3.03;;
34134;SDS011;20410;55.578;12.968;2022-07-23T00:49:22;8.57;;;2.80;;
34134;SDS011;20410;55.578;12.968;2022-07-23T00:51:49;8.77;;;3.00;;
34134;SDS011;20410;55.578;12.968;2022-07-23T00:54:15;10.07;;;3.00;;
34134;SDS011;20410;55.578;12.968;2022-07-23T00:56:42;7.47;;;3.10;;
34134;SDS011;20410;55.578;12.968;2022-07-23T00:59:09;9.10;;;2.63;;
34134;SDS011;20410;55.578;12.968;2022-07-23T01:01:35;8.33;;;3.00;;
34134;SDS011;20410;55.578;12.968;2022-07-23T01:04:01;5.17;;;2.60;;
34134;SDS011;20410;55.578;12.968;2022-07-23T01:06:26;6.90;;;3.03;;
34134;SDS011;20410;55.578;12.968;2022-07-23T01:08:53;9.87;;;3.10;;
34134;SDS011;20410;55.578;12.968;2022-07-23T01:11:20;6.17;;;2.40;;
34134;SDS011;20410;55.578;12.968;2022-07-23T01:13:47;8.77;;;2.63;;
34134;SDS011;20410;55.578;12.968;2022-07-23T01:16:13;8.07;;;2.80;;
34134;SDS011;20410;55.578;12.968;2022-07-23T01:18:38;5.97;;;2.70;;
34134;SDS011;20410;55.578;12.968;2022-07-23T01:21:04;9.10;;;2.57;;
34134;SDS011;20410;55.578;12.968;2022-07-23T01:23:30;7.77;;;2.90;;
34134;SDS011;20410;55.578;12.968;2022-07-23T01:25:56;9.40;;;2.40;;
34134;SDS011;20410;55.578;12.968;2022-07-23T01:28:21;8.23;;;2.67;;
34134;SDS011;20410;55.578;12.968;2022-07-23T01:30:47;6.35;;;2.75;;
34134;SDS011;20410;55.578;12.968;2022-07-23T01:33:13;12.55;;;3.17;;
34134;SDS011;20410;55.578;12.968;2022-07-23T01:35:39;8.70;;;2.67;;
34134;SDS011;20410;55.578;12.968;2022-07-23T01:38:05;7.57;;;2.93;;
34134;SDS011;20410;55.578;12.968;2022-07-23T01:40:30;7.50;;;2.80;;
34134;SDS011;20410;55.578;12.968;2022-07-23T01:42:56;7.17;;;2.60;;
34134;SDS011;20410;55.578;12.968;2022-07-23T01:45:22;6.73;;;2.43;;
34134;SDS011;20410;55.578;12.968;2022-07-23T01:47:48;8.37;;;2.50;;
34134;SDS011;20410;55.578;12.968;2022-07-23T01:50:13;5.87;;;2.50;;
34134;SDS011;20410;55.578;12.968;2022-07-23T01:52:39;7.70;;;2.63;;
34134;SDS011;20410;55.578;12.968;2022-07-23T01:55:05;8.37;;;2.73;;
34134;SDS011;20410;55.578;12.968;2022-07-23T01:57:31;6.03;;;2.53;;
34134;SDS011;20410;55.578;12.968;2022-07-23T01:59:57;8.50;;;2.80;;
34134;SDS011;20410;55.578;12.968;2022-07-23T02:02:22;4.73;;;2.53;;
34134;SDS011;20410;55.578;12.968;2022-07-23T02:04:48;7.77;;;2.80;;
34134;SDS011;20410;55.578;12.968;2022-07-23T02:07:14;8.43;;;2.90;;
34134;SDS011;20410;55.578;12.968;2022-07-23T02:09:39;8.20;;;2.87;;
34134;SDS011;20410;55.578;12.968;2022-07-23T02:12:05;7.83;;;2.63;;
34134;SDS011;20410;55.578;12.968;2022-07-23T02:14:31;6.50;;;2.77;;
34134;SDS011;20410;55.578;12.968;2022-07-23T02:16:56;9.33;;;2.90;;
34134;SDS011;20410;55.578;12.968;2022-07-23T02:19:22;7.47;;;3.03;;
34134;SDS011;20410;55.578;12.968;2022-07-23T02:21:48;8.73;;;3.43;;
34134;SDS011;20410;55.578;12.968;2022-07-23T02:24:13;8.97;;;3.30;;
34134;SDS011;20410;55.578;12.968;2022-07-23T02:26:39;8.57;;;3.20;;
34134;SDS011;20410;55.578;12.968;2022-07-23T02:29:05;11.10;;;3.90;;
34134;SDS011;20410;55.578;12.968;2022-07-23T02:31:31;11.03;;;3.60;;
34134;SDS011;20410;55.578;12.968;2022-07-23T02:33:57;10.50;;;3.30;;
34134;SDS011;20410;55.578;12.968;2022-07-23T02:36:23;10.83;;;3.87;;
34134;SDS011;20410;55.578;12.968;2022-07-23T02:38:49;10.57;;;3.60;;
34134;SDS011;20410;55.578;12.968;2022-07-23T02:41:14;10.40;;;3.23;;
34134;SDS011;20410;55.578;12.968;2022-07-23T02:43:40;11.03;;;3.37;;
34134;SDS011;20410;55.578;12.968;2022-07-23T02:46:05;7.83;;;2.90;;
34134;SDS011;20410;55.578;12.968;2022-07-23T02:48:31;13.00;;;4.13;;
34134;SDS011;20410;55.578;12.968;2022-07-23T02:50:57;13.97;;;3.70;;
34134;SDS011;20410;55.578;12.968;2022-07-23T02:53:23;14.03;;;3.97;;
34134;SDS011;20410;55.578;12.968;2022-07-23T02:55:48;10.50;;;3.33;;
34134;SDS011;20410;55.578;12.968;2022-07-23T02:58:14;9.90;;;3.70;;
34134;SDS011;20410;55.578;12.968;2022-07-23T03:00:41;12.20;;;3.77;;
34134;SDS011;20410;55.578;12.968;2022-07-23T03:03:07;10.60;;;3.83;;
34134;SDS011;20410;55.578;12.968;2022-07-23T03:05:33;11.13;;;3.70;;
34134;SDS011;20410;55.578;12.968;2022-07-23T03:07:59;11.00;;;3.90;;
34134;SDS011;20410;55.578;12.968;2022-07-23T03:10:25;12.50;;;4.17;;
34134;SDS011;20410;55.578;12.968;2022-07-23T03:12:50;12.33;;;3.77;;
34134;SDS011;20410;55.578;12.968;2022-07-23T03:15:16;11.80;;;3.73;;
34134;SDS011;20410;55.578;12.968;2022-07-23T03:17:42;9.33;;;3.60;;
34134;SDS011;20410;55.578;12.968;2022-07-23T03:20:07;12.33;;;3.80;;
34134;SDS011;20410;55.578;12.968;2022-07-23T03:22:34;12.83;;;3.77;;
34134;SDS011;20410;55.578;12.968;2022-07-23T03:24:59;14.30;;;4.17;;
34134;SDS011;20410;55.578;12.968;2022-07-23T03:27:25;10.70;;;3.53;;
34134;SDS011;20410;55.578;12.968;2022-07-23T03:29:53;8.03;;;3.40;;
34134;SDS011;20410;55.578;12.968;2022-07-23T03:32:20;10.13;;;3.73;;
34134;SDS011;20410;55.578;12.968;2022-07-23T03:34:47;11.13;;;3.40;;
34134;SDS011;20410;55.578;12.968;2022-07-23T03:37:13;10.87;;;3.50;;
34134;SDS011;20410;55.578;12.968;2022-07-23T03:39:38;7.43;;;3.20;;
34134;SDS011;20410;55.578;12.968;2022-07-23T03:42:04;10.33;;;3.90;;
34134;SDS011;20410;55.578;12.968;2022-07-23T03:44:31;9.90;;;3.40;;
34134;SDS011;20410;55.578;12.968;2022-07-23T03:46:56;9.87;;;3.57;;
34134;SDS011;20410;55.578;12.968;2022-07-23T03:49:22;8.97;;;4.17;;
34134;SDS011;20410;55.578;12.968;2022-07-23T03:51:47;10.77;;;3.80;;
34134;SDS011;20410;55.578;12.968;2022-07-23T03:54:13;12.23;;;3.97;;
34134;SDS011;20410;55.578;12.968;2022-07-23T03:56:39;8.47;;;4.03;;
34134;SDS011;20410;55.578;12.968;2022-07-23T03:59:04;10.47;;;3.93;;
34134;SDS011;20410;55.578;12.968;2022-07-23T04:01:30;8.23;;;3.93;;
34134;SDS011;20410;55.578;12.968;2022-07-23T04:03:56;9.93;;;3.80;;
34134;SDS011;20410;55.578;12.968;2022-07-23T04:06:21;12.37;;;4.40;;
34134;SDS011;20410;55.578;12.968;2022-07-23T04:08:47;8.27;;;3.67;;
34134;SDS011;20410;55.578;12.968;2022-07-23T04:11:12;8.23;;;3.60;;
34134;SDS011;20410;55.578;12.968;2022-07-23T04:13:38;8.20;;;3.77;;
34134;SDS011;20410;55.578;12.968;2022-07-23T04:16:04;10.83;;;3.63;;
34134;SDS011;20410;55.578;12.968;2022-07-23T04:18:31;9.93;;;4.27;;
34134;SDS011;20410;55.578;12.968;2022-07-23T04:20:56;8.93;;;3.60;;
34134;SDS011;20410;55.578;12.968;2022-07-23T04:23:22;12.30;;;4.17;;
34134;SDS011;20410;55.578;12.968;2022-07-23T04:25:48;7.73;;;4.20;;
34134;SDS011;20410;55.578;12.968;2022-07-23T04:28:13;6.67;;;3.60;;
34134;SDS011;20410;55.578;12.968;2022-07-23T04:30:39;7.73;;;3.73;;
34134;SDS011;20410;55.578;12.968;2022-07-23T04:33:04;8.10;;;4.17;;
34134;SDS011;20410;55.578;12.968;2022-07-23T04:35:35;8.80;;;3.60;;
34134;SDS011;20410;55.578;12.968;2022-07-23T04:38:01;10.70;;;4.40;;
34134;SDS011;20410;55.578;12.968;2022-07-23T04:40:28;7.20;;;3.60;;
34134;SDS011;20410;55.578;12.968;2022-07-23T04:42:54;7.80;;;3.70;;
34134;SDS011;20410;55.578;12.968;2022-07-23T04:45:20;10.27;;;4.17;;
34134;SDS011;20410;55.578;12.968;2022-07-23T04:47:46;8.20;;;4.00;;
34134;SDS011;20410;55.578;12.968;2022-07-23T04:50:12;6.43;;;4.50;;
34134;SDS011;20410;55.578;12.968;2022-07-23T04:52:38;8.53;;;4.20;;
34134;SDS011;20410;55.578;12.968;2022-07-23T04:55:03;6.37;;;3.87;;
34134;SDS011;20410;55.578;12.968;2022-07-23T04:57:29;7.90;;;3.70;;
34134;SDS011;20410;55.578;12.968;2022-07-23T04:59:55;5.90;;;3.53;;
34134;SDS011;20410;55.578;12.968;2022-07-23T05:02:20;7.23;;;3.70;;
34134;SDS011;20410;55.578;12.968;2022-07-23T05:04:46;8.57;;;4.30;;
34134;SDS011;20410;55.578;12.968;2022-07-23T05:07:11;10.30;;;4.47;;
34134;SDS011;20410;55.578;12.968;2022-07-23T05:09:37;9.37;;;4.23;;
34134;SDS011;20410;55.578;12.968;2022-07-23T05:12:03;8.67;;;3.73;;
34134;SDS011;20410;55.578;12.968;2022-07-23T05:14:28;7.40;;;3.90;;
34134;SDS011;20410;55.578;12.968;2022-07-23T05:16:54;7.77;;;3.87;;
34134;SDS011;20410;55.578;12.968;2022-07-23T05:19:20;9.27;;;3.53;;
34134;SDS011;20410;55.578;12.968;2022-07-23T05:21:46;8.37;;;3.20;;
34134;SDS011;20410;55.578;12.968;2022-07-23T05:24:12;6.43;;;3.80;;
34134;SDS011;20410;55.578;12.968;2022-07-23T05:26:37;6.63;;;3.53;;
34134;SDS011;20410;55.578;12.968;2022-07-23T05:29:03;7.17;;;3.60;;
34134;SDS011;20410;55.578;12.968;2022-07-23T05:31:29;6.47;;;3.80;;
34134;SDS011;20410;55.578;12.968;2022-07-23T05:33:54;5.20;;;3.20;;
34134;SDS011;20410;55.578;12.968;2022-07-23T05:36:20;6.50;;;3.47;;
34134;SDS011;20410;55.578;12.968;2022-07-23T05:38:45;6.53;;;2.90;;
34134;SDS011;20410;55.578;12.968;2022-07-23T05:41:11;7.23;;;3.20;;
34134;SDS011;20410;55.578;12.968;2022-07-23T05:43:36;4.70;;;3.13;;
34134;SDS011;20410;55.578;12.968;2022-07-23T05:46:02;7.57;;;3.57;;
34134;SDS011;20410;55.578;12.968;2022-07-23T05:48:28;5.80;;;3.10;;
34134;SDS011;20410;55.578;12.968;2022-07-23T05:50:54;7.77;;;3.37;;
34134;SDS011;20410;55.578;12.968;2022-07-23T05:53:19;8.43;;;3.23;;
34134;SDS011;20410;55.578;12.968;2022-07-23T05:55:45;6.30;;;3.10;;
34134;SDS011;20410;55.578;12.968;2022-07-23T05:58:10;5.50;;;3.60;;
34134;SDS011;20410;55.578;12.968;2022-07-23T06:00:36;7.87;;;3.30;;
34134;SDS011;20410;55.578;12.968;2022-07-23T06:03:02;6.03;;;3.60;;
34134;SDS011;20410;55.578;12.968;2022-07-23T06:05:27;7.23;;;3.80;;
34134;SDS011;20410;55.578;12.968;2022-07-23T06:07:53;9.23;;;4.70;;
34134;SDS011;20410;55.578;12.968;2022-07-23T06:10:19;8.43;;;4.07;;
34134;SDS011;20410;55.578;12.968;2022-07-23T06:12:44;8.70;;;4.40;;
34134;SDS011;20410;55.578;12.968;2022-07-23T06:15:10;8.10;;;3.50;;
34134;SDS011;20410;55.578;12.968;2022-07-23T06:17:36;8.20;;;4.27;;
34134;SDS011;20410;55.578;12.968;2022-07-23T06:20:04;10.57;;;4.80;;
34134;SDS011;20410;55.578;12.968;2022-07-23T06:22:34;8.23;;;3.87;;
34134;SDS011;20410;55.578;12.968;2022-07-23T06:25:00;7.40;;;3.73;;
34134;SDS011;20410;55.578;12.968;2022-07-23T06:27:26;4.83;;;3.43;;
34134;SDS011;20410;55.578;12.968;2022-07-23T06:29:51;6.47;;;4.17;;
34134;SDS011;20410;55.578;12.968;2022-07-23T06:32:17;6.07;;;3.93;;
34134;SDS011;20410;55.578;12.968;2022-07-23T06:34:43;6.13;;;3.53;;
34134;SDS011;20410;55.578;12.968;2022-07-23T06:37:08;8.40;;;3.97;;
34134;SDS011;20410;55.578;12.968;2022-07-23T06:39:34;6.70;;;4.30;;
34134;SDS011;20410;55.578;12.968;2022-07-23T06:41:59;6.30;;;3.83;;
34134;SDS011;20410;55.578;12.968;2022-07-23T06:44:26;4.80;;;3.40;;
34134;SDS011;20410;55.578;12.968;2022-07-23T06:46:52;5.23;;;3.80;;
34134;SDS011;20410;55.578;12.968;2022-07-23T06:49:17;5.63;;;3.37;;
34134;SDS011;20410;55.578;12.968;2022-07-23T06:51:43;6.80;;;3.60;;
34134;SDS011;20410;55.578;12.968;2022-07-23T06:54:08;6.43;;;3.50;;
34134;SDS011;20410;55.578;12.968;2022-07-23T06:56:34;7.80;;;3.80;;
34134;SDS011;20410;55.578;12.968;2022-07-23T06:59:00;5.83;;;2.83;;
34134;SDS011;20410;55.578;12.968;2022-07-23T07:01:25;4.17;;;2.90;;
34134;SDS011;20410;55.578;12.968;2022-07-23T07:03:51;4.33;;;2.60;;
34134;SDS011;20410;55.578;12.968;2022-07-23T07:06:16;5.23;;;2.70;;
34134;SDS011;20410;55.578;12.968;2022-07-23T07:08:42;4.53;;;2.70;;
34134;SDS011;20410;55.578;12.968;2022-07-23T07:11:08;5.07;;;3.10;;
34134;SDS011;20410;55.578;12.968;2022-07-23T07:13:35;5.70;;;3.40;;
34134;SDS011;20410;55.578;12.968;2022-07-23T07:16:01;7.17;;;3.77;;
34134;SDS011;20410;55.578;12.968;2022-07-23T07:18:27;6.83;;;3.33;;
34134;SDS011;20410;55.578;12.968;2022-07-23T07:20:53;6.43;;;3.40;;
34134;SDS011;20410;55.578;12.968;2022-07-23T07:23:18;5.87;;;3.00;;
34134;SDS011;20410;55.578;12.968;2022-07-23T07:25:45;9.30;;;4.17;;
34134;SDS011;20410;55.578;12.968;2022-07-23T07:28:11;7.97;;;3.83;;
34134;SDS011;20410;55.578;12.968;2022-07-23T07:30:37;9.07;;;3.80;;
34134;SDS011;20410;55.578;12.968;2022-07-23T07:33:02;8.37;;;3.47;;
34134;SDS011;20410;55.578;12.968;2022-07-23T07:35:28;6.60;;;2.93;;
34134;SDS011;20410;55.578;12.968;2022-07-23T07:37:54;6.70;;;3.20;;
34134;SDS011;20410;55.578;12.968;2022-07-23T07:40:19;7.70;;;3.23;;
34134;SDS011;20410;55.578;12.968;2022-07-23T07:42:46;10.23;;;3.43;;
34134;SDS011;20410;55.578;12.968;2022-07-23T07:45:13;10.80;;;3.03;;
34134;SDS011;20410;55.578;12.968;2022-07-23T07:47:38;6.47;;;3.03;;
34134;SDS011;20410;55.578;12.968;2022-07-23T07:50:04;6.30;;;2.90;;
34134;SDS011;20410;55.578;12.968;2022-07-23T07:52:30;7.07;;;2.80;;
34134;SDS011;20410;55.578;12.968;2022-07-23T07:54:55;8.77;;;2.80;;
34134;SDS011;20410;55.578;12.968;2022-07-23T07:57:21;6.97;;;2.53;;
34134;SDS011;20410;55.578;12.968;2022-07-23T07:59:46;6.17;;;2.63;;
34134;SDS011;20410;55.578;12.968;2022-07-23T08:02:12;4.73;;;2.27;;
34134;SDS011;20410;55.578;12.968;2022-07-23T08:04:37;6.07;;;2.30;;
34134;SDS011;20410;55.578;12.968;2022-07-23T08:07:03;4.80;;;2.00;;
34134;SDS011;20410;55.578;12.968;2022-07-23T08:09:28;5.50;;;2.40;;
34134;SDS011;20410;55.578;12.968;2022-07-23T08:11:54;6.72;;;2.70;;
34134;SDS011;20410;55.578;12.968;2022-07-23T08:14:20;3.97;;;2.50;;
34134;SDS011;20410;55.578;12.968;2022-07-23T08:16:45;7.47;;;2.63;;
34134;SDS011;20410;55.578;12.968;2022-07-23T08:19:11;7.43;;;3.00;;
34134;SDS011;20410;55.578;12.968;2022-07-23T08:21:36;5.50;;;2.42;;
34134;SDS011;20410;55.578;12.968;2022-07-23T08:24:02;5.97;;;2.42;;
34134;SDS011;20410;55.578;12.968;2022-07-23T08:26:28;5.80;;;2.50;;
34134;SDS011;20410;55.578;12.968;2022-07-23T08:28:53;3.92;;;2.40;;
34134;SDS011;20410;55.578;12.968;2022-07-23T08:31:19;5.47;;;2.45;;
34134;SDS011;20410;55.578;12.968;2022-07-23T08:33:44;4.55;;;2.50;;
34134;SDS011;20410;55.578;12.968;2022-07-23T08:36:10;4.13;;;2.22;;
34134;SDS011;20410;55.578;12.968;2022-07-23T08:38:35;5.32;;;2.45;;
34134;SDS011;20410;55.578;12.968;2022-07-23T08:41:01;5.77;;;2.67;;
34134;SDS011;20410;55.578;12.968;2022-07-23T08:43:29;5.43;;;2.33;;
34134;SDS011;20410;55.578;12.968;2022-07-23T08:45:57;3.75;;;2.03;;
34134;SDS011;20410;55.578;12.968;2022-07-23T08:48:25;4.38;;;2.10;;
34134;SDS011;20410;55.578;12.968;2022-07-23T08:50:56;4.50;;;2.03;;
34134;SDS011;20410;55.578;12.968;2022-07-23T08:53:24;5.18;;;2.28;;
34134;SDS011;20410;55.578;12.968;2022-07-23T08:55:52;4.88;;;2.30;;
34134;SDS011;20410;55.578;12.968;2022-07-23T08:58:19;3.05;;;1.90;;
34134;SDS011;20410;55.578;12.968;2022-07-23T09:00:46;3.03;;;2.10;;
34134;SDS011;20410;55.578;12.968;2022-07-23T09:03:20;2.90;;;1.80;;
34134;SDS011;20410;55.578;12.968;2022-07-23T09:05:47;2.97;;;1.70;;
34134;SDS011;20410;55.578;12.968;2022-07-23T09:08:16;4.87;;;1.97;;
34134;SDS011;20410;55.578;12.968;2022-07-23T09:10:47;2.70;;;1.70;;
34134;SDS011;20410;55.578;12.968;2022-07-23T09:15:50;3.10;;;1.70;;
34134;SDS011;20410;55.578;12.968;2022-07-23T09:18:16;3.10;;;1.70;;
34134;SDS011;20410;55.578;12.968;2022-07-23T09:20:42;4.13;;;1.50;;
34134;SDS011;20410;55.578;12.968;2022-07-23T09:23:08;2.63;;;1.60;;
34134;SDS011;20410;55.578;12.968;2022-07-23T09:25:34;2.23;;;1.37;;
34134;SDS011;20410;55.578;12.968;2022-07-23T09:27:59;3.27;;;1.40;;
34134;SDS011;20410;55.578;12.968;2022-07-23T09:30:30;2.90;;;1.60;;
34134;SDS011;20410;55.578;12.968;2022-07-23T09:33:15;3.07;;;1.50;;
34134;SDS011;20410;55.578;12.968;2022-07-23T09:35:51;4.90;;;1.60;;
34134;SDS011;20410;55.578;12.968;2022-07-23T09:38:19;3.42;;;1.70;;
34134;SDS011;20410;55.578;12.968;2022-07-23T09:40:46;3.47;;;1.30;;
34134;SDS011;20410;55.578;12.968;2022-07-23T09:43:12;3.17;;;1.38;;
34134;SDS011;20410;55.578;12.968;2022-07-23T09:45:51;3.80;;;1.35;;
34134;SDS011;20410;55.578;12.968;2022-07-23T09:48:17;2.13;;;1.20;;
34134;SDS011;20410;55.578;12.968;2022-07-23T09:50:43;1.85;;;1.27;;
34134;SDS011;20410;55.578;12.968;2022-07-23T09:53:09;3.03;;;1.30;;
34134;SDS011;20410;55.578;12.968;2022-07-23T09:55:48;1.30;;;1.20;;
34134;SDS011;20410;55.578;12.968;2022-07-23T09:58:16;2.97;;;1.40;;
34134;SDS011;20410;55.578;12.968;2022-07-23T10:00:46;1.63;;;1.20;;
34134;SDS011;20410;55.578;12.968;2022-07-23T10:03:14;2.23;;;1.30;;
34134;SDS011;20410;55.578;12.968;2022-07-23T10:05:41;1.63;;;1.10;;
34134;SDS011;20410;55.578;12.968;2022-07-23T10:08:08;3.55;;;1.20;;
34134;SDS011;20410;55.578;12.968;2022-07-23T10:10:38;2.20;;;1.30;;
34134;SDS011;20410;55.578;12.968;2022-07-23T10:13:04;2.28;;;1.30;;
34134;SDS011;20410;55.578;12.968;2022-07-23T10:15:46;1.55;;;1.23;;
34134;SDS011;20410;55.578;12.968;2022-07-23T10:18:12;2.23;;;1.37;;
34134;SDS011;20410;55.578;12.968;2022-07-23T10:20:38;1.80;;;1.27;;
34134;SDS011;20410;55.578;12.968;2022-07-23T10:23:17;2.28;;;1.33;;
34134;SDS011;20410;55.578;12.968;2022-07-23T10:26:03;1.67;;;1.00;;
34134;SDS011;20410;55.578;12.968;2022-07-23T10:36:56;2.03;;;1.37;;
34134;SDS011;20410;55.578;12.968;2022-07-23T10:39:48;1.50;;;1.30;;
34134;SDS011;20410;55.578;12.968;2022-07-23T10:42:33;3.40;;;1.40;;
34134;SDS011;20410;55.578;12.968;2022-07-23T10:45:00;1.97;;;1.30;;
34134;SDS011;20410;55.578;12.968;2022-07-23T10:47:26;1.98;;;1.40;;
34134;SDS011;20410;55.578;12.968;2022-07-23T10:57:57;3.08;;;1.38;;
34134;SDS011;20410;55.578;12.968;2022-07-23T11:00:26;1.70;;;1.27;;
34134;SDS011;20410;55.578;12.968;2022-07-23T11:03:04;2.17;;;1.53;;
34134;SDS011;20410;55.578;12.968;2022-07-23T11:05:43;2.80;;;1.45;;
34134;SDS011;20410;55.578;12.968;2022-07-23T11:10:47;2.65;;;1.58;;
34134;SDS011;20410;55.578;12.968;2022-07-23T11:13:29;2.80;;;1.50;;
34134;SDS011;20410;55.578;12.968;2022-07-23T11:24:08;1.92;;;1.52;;
34134;SDS011;20410;55.578;12.968;2022-07-23T11:32:01;2.35;;;1.60;;
34134;SDS011;20410;55.578;12.968;2022-07-23T11:37:01;2.55;;;1.40;;
34134;SDS011;20410;55.578;12.968;2022-07-23T11:39:28;2.70;;;1.52;;
34134;SDS011;20410;55.578;12.968;2022-07-23T11:41:56;1.95;;;1.52;;
34134;SDS011;20410;55.578;12.968;2022-07-23T11:44:29;2.45;;;1.50;;
34134;SDS011;20410;55.578;12.968;2022-07-23T11:46:59;2.13;;;1.45;;
34134;SDS011;20410;55.578;12.968;2022-07-23T11:49:25;2.03;;;1.40;;
34134;SDS011;20410;55.578;12.968;2022-07-23T11:52:08;2.35;;;1.40;;
34134;SDS011;20410;55.578;12.968;2022-07-23T11:57:18;1.67;;;1.17;;
34134;SDS011;20410;55.578;12.968;2022-07-23T11:59:49;2.45;;;1.42;;
34134;SDS011;20410;55.578;12.968;2022-07-23T12:02:16;1.30;;;1.20;;
34134;SDS011;20410;55.578;12.968;2022-07-23T12:09:58;4.20;;;1.48;;
34134;SDS011;20410;55.578;12.968;2022-07-23T12:12:27;2.10;;;1.10;;
34134;SDS011;20410;55.578;12.968;2022-07-23T12:14:59;2.55;;;1.20;;
34134;SDS011;20410;55.578;12.968;2022-07-23T12:17:28;2.22;;;1.23;;
34134;SDS011;20410;55.578;12.968;2022-07-23T12:19:56;3.03;;;1.15;;
34134;SDS011;20410;55.578;12.968;2022-07-23T12:22:23;1.95;;;1.38;;
34134;SDS011;20410;55.578;12.968;2022-07-23T12:25:00;2.55;;;1.08;;
34134;SDS011;20410;55.578;12.968;2022-07-23T12:27:28;1.63;;;1.15;;
34134;SDS011;20410;55.578;12.968;2022-07-23T12:29:53;1.50;;;1.08;;
34134;SDS011;20410;55.578;12.968;2022-07-23T12:32:21;1.92;;;1.20;;
34134;SDS011;20410;55.578;12.968;2022-07-23T12:35:06;1.27;;;1.17;;
34134;SDS011;20410;55.578;12.968;2022-07-23T12:37:37;1.88;;;1.10;;
34134;SDS011;20410;55.578;12.968;2022-07-23T12:42:54;1.75;;;1.20;;
34134;SDS011;20410;55.578;12.968;2022-07-23T12:45:21;2.05;;;1.23;;
34134;SDS011;20410;55.578;12.968;2022-07-23T12:47:51;1.70;;;1.10;;
34134;SDS011;20410;55.578;12.968;2022-07-23T12:50:31;1.27;;;1.13;;
34134;SDS011;20410;55.578;12.968;2022-07-23T12:53:03;2.53;;;1.27;;
34134;SDS011;20410;55.578;12.968;2022-07-23T12:55:29;3.00;;;1.27;;
34134;SDS011;20410;55.578;12.968;2022-07-23T12:58:06;3.22;;;1.20;;
34134;SDS011;20410;55.578;12.968;2022-07-23T13:00:49;2.78;;;1.33;;
34134;SDS011;20410;55.578;12.968;2022-07-23T13:03:27;1.38;;;1.10;;
34134;SDS011;20410;55.578;12.968;2022-07-23T13:05:55;1.35;;;1.02;;
34134;SDS011;20410;55.578;12.968;2022-07-23T13:08:21;3.70;;;1.17;;
34134;SDS011;20410;55.578;12.968;2022-07-23T13:10:48;1.00;;;1.00;;
34134;SDS011;20410;55.578;12.968;2022-07-23T13:13:16;1.15;;;1.02;;
34134;SDS011;20410;55.578;12.968;2022-07-23T13:15:46;1.55;;;1.10;;
34134;SDS011;20410;55.578;12.968;2022-07-23T13:18:11;1.92;;;1.20;;
34134;SDS011;20410;55.578;12.968;2022-07-23T13:20:37;2.42;;;0.98;;
34134;SDS011;20410;55.578;12.968;2022-07-23T13:23:04;2.25;;;1.20;;
34134;SDS011;20410;55.578;12.968;2022-07-23T13:25:31;1.48;;;1.02;;
34134;SDS011;20410;55.578;12.968;2022-07-23T13:27:57;2.65;;;1.10;;
34134;SDS011;20410;55.578;12.968;2022-07-23T13:30:22;1.42;;;1.10;;
34134;SDS011;20410;55.578;12.968;2022-07-23T13:32:48;1.52;;;1.20;;
34134;SDS011;20410;55.578;12.968;2022-07-23T13:35:14;1.60;;;1.20;;
34134;SDS011;20410;55.578;12.968;2022-07-23T13:37:39;1.20;;;1.10;;
34134;SDS011;20410;55.578;12.968;2022-07-23T13:40:05;2.00;;;1.20;;
34134;SDS011;20410;55.578;12.968;2022-07-23T13:42:31;1.63;;;1.10;;
34134;SDS011;20410;55.578;12.968;2022-07-23T13:44:57;1.38;;;1.00;;
34134;SDS011;20410;55.578;12.968;2022-07-23T13:47:23;1.63;;;1.10;;
34134;SDS011;20410;55.578;12.968;2022-07-23T13:49:48;1.30;;;1.20;;
34134;SDS011;20410;55.578;12.968;2022-07-23T13:52:14;2.35;;;1.30;;
34134;SDS011;20410;55.578;12.968;2022-07-23T13:54:40;1.95;;;1.38;;
34134;SDS011;20410;55.578;12.968;2022-07-23T13:57:05;1.33;;;1.23;;
34134;SDS011;20410;55.578;12.968;2022-07-23T13:59:32;2.40;;;1.30;;
34134;SDS011;20410;55.578;12.968;2022-07-23T14:01:58;2.47;;;1.30;;
34134;SDS011;20410;55.578;12.968;2022-07-23T14:04:24;1.52;;;1.20;;
34134;SDS011;20410;55.578;12.968;2022-07-23T14:06:49;1.50;;;1.20;;
34134;SDS011;20410;55.578;12.968;2022-07-23T14:09:15;2.15;;;1.42;;
34134;SDS011;20410;55.578;12.968;2022-07-23T14:11:40;2.90;;;1.27;;
34134;SDS011;20410;55.578;12.968;2022-07-23T14:14:06;1.20;;;1.10;;
34134;SDS011;20410;55.578;12.968;2022-07-23T14:16:31;3.50;;;1.55;;
34134;SDS011;20410;55.578;12.968;2022-07-23T14:18:57;2.05;;;1.27;;
34134;SDS011;20410;55.578;12.968;2022-07-23T14:21:23;1.58;;;1.40;;
34134;SDS011;20410;55.578;12.968;2022-07-23T14:23:48;5.38;;;1.40;;
34134;SDS011;20410;55.578;12.968;2022-07-23T14:26:14;2.55;;;1.30;;
34134;SDS011;20410;55.578;12.968;2022-07-23T14:28:39;4.20;;;1.60;;
34134;SDS011;20410;55.578;12.968;2022-07-23T14:31:05;2.38;;;1.30;;
34134;SDS011;20410;55.578;12.968;2022-07-23T14:33:31;4.05;;;1.48;;
34134;SDS011;20410;55.578;12.968;2022-07-23T14:35:57;2.55;;;1.30;;
34134;SDS011;20410;55.578;12.968;2022-07-23T14:38:23;5.03;;;1.55;;
34134;SDS011;20410;55.578;12.968;2022-07-23T14:40:49;3.28;;;1.40;;
34134;SDS011;20410;55.578;12.968;2022-07-23T14:43:15;2.00;;;1.30;;
34134;SDS011;20410;55.578;12.968;2022-07-23T14:45:40;2.72;;;1.50;;
34134;SDS011;20410;55.578;12.968;2022-07-23T14:48:06;2.55;;;1.35;;
34134;SDS011;20410;55.578;12.968;2022-07-23T14:50:31;4.93;;;1.48;;
34134;SDS011;20410;55.578;12.968;2022-07-23T14:52:57;2.22;;;1.20;;
34134;SDS011;20410;55.578;12.968;2022-07-23T14:55:22;5.80;;;1.52;;
34134;SDS011;20410;55.578;12.968;2022-07-23T14:57:48;2.55;;;1.30;;
34134;SDS011;20410;55.578;12.968;2022-07-23T15:00:14;2.70;;;1.40;;
34134;SDS011;20410;55.578;12.968;2022-07-23T15:02:40;1.50;;;1.15;;
34134;SDS011;20410;55.578;12.968;2022-07-23T15:05:06;2.85;;;1.23;;
34134;SDS011;20410;55.578;12.968;2022-07-23T15:07:31;2.05;;;1.20;;
34134;SDS011;20410;55.578;12.968;2022-07-23T15:09:57;2.47;;;1.10;;
34134;SDS011;20410;55.578;12.968;2022-07-23T15:12:23;1.67;;;1.30;;
34134;SDS011;20410;55.578;12.968;2022-07-23T15:14:49;2.27;;;1.00;;
34134;SDS011;20410;55.578;12.968;2022-07-23T15:17:14;1.10;;;1.00;;
34134;SDS011;20410;55.578;12.968;2022-07-23T15:19:40;2.22;;;1.17;;